Mabton, Washington
Current Conditions -  °F | °C
As of 4:53 PM on Saturday 22 Nov 2014 (Local Time) from KYKM Reporting Station
Few Clouds Few Clouds  
Wind Chill: 38°   Ceiling: Unl
Heat Index: 42°   Visibility: 10mi
Dew Point: 30°   Wind: 7mph
Humidity: 62%   Direction: 280°W
Pressure: 29.9"   Gusts: NA
Location:  46.21°N, 120°W
Report Text: KYKM 230053Z 28006KT 10SM FEW070 06/M01 A2990 RMK AO2 SLP133 T00561011
Loading
Personal Weather Stations






























Interactive Weather Map New forecast layout! Learn more

10-Day Weather Forecast

Advertisements
Track Severe Weather on mobile